sensor_id;sensor_type;location;lat;lon;timestamp;temperature;humidity
48686;DHT22;34485;51.536;3.816;2022-08-20T00:00:18;18.80;99.90
48686;DHT22;34485;51.536;3.816;2022-08-20T00:02:48;18.80;99.90
48686;DHT22;34485;51.536;3.816;2022-08-20T00:05:19;18.80;99.90
48686;DHT22;34485;51.536;3.816;2022-08-20T00:07:45;18.70;99.90
48686;DHT22;34485;51.536;3.816;2022-08-20T00:10:13;18.70;99.90
48686;DHT22;34485;51.536;3.816;2022-08-20T00:12:43;18.60;99.90
48686;DHT22;34485;51.536;3.816;2022-08-20T00:15:10;18.60;99.90
48686;DHT22;34485;51.536;3.816;2022-08-20T00:17:36;18.60;99.90
48686;DHT22;34485;51.536;3.816;2022-08-20T00:20:10;18.60;99.90
48686;DHT22;34485;51.536;3.816;2022-08-20T00:22:36;18.60;99.90
48686;DHT22;34485;51.536;3.816;2022-08-20T00:27:30;18.70;99.90
48686;DHT22;34485;51.536;3.816;2022-08-20T00:29:55;18.60;99.90
48686;DHT22;34485;51.536;3.816;2022-08-20T00:32:21;18.60;99.90
48686;DHT22;34485;51.536;3.816;2022-08-20T00:34:47;18.50;99.90
48686;DHT22;34485;51.536;3.816;2022-08-20T00:37:13;18.50;99.90
48686;DHT22;34485;51.536;3.816;2022-08-20T00:39:39;18.50;99.90
48686;DHT22;34485;51.536;3.816;2022-08-20T00:42:04;18.40;99.90
48686;DHT22;34485;51.536;3.816;2022-08-20T00:44:31;18.40;99.90
48686;DHT22;34485;51.536;3.816;2022-08-20T00:46:57;18.40;99.90
48686;DHT22;34485;51.536;3.816;2022-08-20T00:49:28;18.30;99.90
48686;DHT22;34485;51.536;3.816;2022-08-20T00:51:59;18.30;99.90
48686;DHT22;34485;51.536;3.816;2022-08-20T00:54:33;18.30;99.90
48686;DHT22;34485;51.536;3.816;2022-08-20T00:57:06;18.30;99.90
48686;DHT22;34485;51.536;3.816;2022-08-20T00:59:35;18.20;99.90
48686;DHT22;34485;51.536;3.816;2022-08-20T01:02:04;18.20;99.90
48686;DHT22;34485;51.536;3.816;2022-08-20T01:04:31;18.20;99.90
48686;DHT22;34485;51.536;3.816;2022-08-20T01:06:58;18.20;99.90
48686;DHT22;34485;51.536;3.816;2022-08-20T01:09:24;18.10;99.90
48686;DHT22;34485;51.536;3.816;2022-08-20T01:11:50;18.10;99.90
48686;DHT22;34485;51.536;3.816;2022-08-20T01:14:15;18.10;99.90
48686;DHT22;34485;51.536;3.816;2022-08-20T01:17:05;18.00;99.90
48686;DHT22;34485;51.536;3.816;2022-08-20T01:20:05;18.00;99.90
48686;DHT22;34485;51.536;3.816;2022-08-20T01:28:50;17.90;99.90
48686;DHT22;34485;51.536;3.816;2022-08-20T01:31:26;17.80;99.90
48686;DHT22;34485;51.536;3.816;2022-08-20T01:33:54;17.80;99.90
48686;DHT22;34485;51.536;3.816;2022-08-20T01:36:23;17.70;99.90
48686;DHT22;34485;51.536;3.816;2022-08-20T01:38:49;17.70;99.90
48686;DHT22;34485;51.536;3.816;2022-08-20T01:44:09;17.70;99.90
48686;DHT22;34485;51.536;3.816;2022-08-20T01:46:39;17.60;99.90
48686;DHT22;34485;51.536;3.816;2022-08-20T01:49:21;17.60;99.90
48686;DHT22;34485;51.536;3.816;2022-08-20T01:51:48;17.60;99.90
48686;DHT22;34485;51.536;3.816;2022-08-20T01:54:15;17.60;99.90
48686;DHT22;34485;51.536;3.816;2022-08-20T01:57:11;17.60;99.90
48686;DHT22;34485;51.536;3.816;2022-08-20T01:59:38;17.50;99.90
48686;DHT22;34485;51.536;3.816;2022-08-20T02:02:04;17.50;99.90
48686;DHT22;34485;51.536;3.816;2022-08-20T02:04:31;17.50;99.90
48686;DHT22;34485;51.536;3.816;2022-08-20T02:06:58;17.40;99.90
48686;DHT22;34485;51.536;3.816;2022-08-20T02:09:27;17.40;99.90
48686;DHT22;34485;51.536;3.816;2022-08-20T02:11:55;17.40;99.90
48686;DHT22;34485;51.536;3.816;2022-08-20T02:14:22;17.40;99.90
48686;DHT22;34485;51.536;3.816;2022-08-20T02:16:48;17.30;99.90
48686;DHT22;34485;51.536;3.816;2022-08-20T02:19:23;17.30;99.90
48686;DHT22;34485;51.536;3.816;2022-08-20T02:21:53;17.30;99.90
48686;DHT22;34485;51.536;3.816;2022-08-20T02:24:20;17.30;99.90
48686;DHT22;34485;51.536;3.816;2022-08-20T02:26:46;17.10;99.90
48686;DHT22;34485;51.536;3.816;2022-08-20T02:29:13;17.10;99.90
48686;DHT22;34485;51.536;3.816;2022-08-20T02:31:40;17.10;99.90
48686;DHT22;34485;51.536;3.816;2022-08-20T02:34:07;17.10;99.90
48686;DHT22;34485;51.536;3.816;2022-08-20T02:36:37;17.00;99.90
48686;DHT22;34485;51.536;3.816;2022-08-20T02:39:05;17.00;99.90
48686;DHT22;34485;51.536;3.816;2022-08-20T02:41:33;16.90;99.90
48686;DHT22;34485;51.536;3.816;2022-08-20T02:46:24;16.90;99.90
48686;DHT22;34485;51.536;3.816;2022-08-20T02:48:55;16.90;99.90
48686;DHT22;34485;51.536;3.816;2022-08-20T02:51:21;16.80;99.90
48686;DHT22;34485;51.536;3.816;2022-08-20T02:53:47;16.80;99.90
48686;DHT22;34485;51.536;3.816;2022-08-20T02:56:13;16.70;99.90
48686;DHT22;34485;51.536;3.816;2022-08-20T02:58:40;16.70;99.90
48686;DHT22;34485;51.536;3.816;2022-08-20T03:01:09;16.70;99.90
48686;DHT22;34485;51.536;3.816;2022-08-20T03:03:37;16.60;99.90
48686;DHT22;34485;51.536;3.816;2022-08-20T03:06:03;16.60;99.90
48686;DHT22;34485;51.536;3.816;2022-08-20T03:08:29;16.60;99.90
48686;DHT22;34485;51.536;3.816;2022-08-20T03:10:56;16.60;99.90
48686;DHT22;34485;51.536;3.816;2022-08-20T03:13:22;16.50;99.90
48686;DHT22;34485;51.536;3.816;2022-08-20T03:15:51;16.60;99.90
48686;DHT22;34485;51.536;3.816;2022-08-20T03:18:18;16.50;99.90
48686;DHT22;34485;51.536;3.816;2022-08-20T03:20:44;16.50;99.90
48686;DHT22;34485;51.536;3.816;2022-08-20T03:23:10;16.50;99.90
48686;DHT22;34485;51.536;3.816;2022-08-20T03:25:36;16.50;99.90
48686;DHT22;34485;51.536;3.816;2022-08-20T03:28:02;16.40;99.90
48686;DHT22;34485;51.536;3.816;2022-08-20T03:30:29;16.40;99.90
48686;DHT22;34485;51.536;3.816;2022-08-20T03:32:55;16.40;99.90
48686;DHT22;34485;51.536;3.816;2022-08-20T03:35:23;16.30;99.90
48686;DHT22;34485;51.536;3.816;2022-08-20T03:37:49;16.30;99.90
48686;DHT22;34485;51.536;3.816;2022-08-20T03:40:18;16.20;99.90
48686;DHT22;34485;51.536;3.816;2022-08-20T03:42:44;16.20;99.90
48686;DHT22;34485;51.536;3.816;2022-08-20T03:45:11;16.20;99.90
48686;DHT22;34485;51.536;3.816;2022-08-20T03:47:39;16.10;99.90
48686;DHT22;34485;51.536;3.816;2022-08-20T03:50:07;16.10;99.90
48686;DHT22;34485;51.536;3.816;2022-08-20T03:52:33;16.10;99.90
48686;DHT22;34485;51.536;3.816;2022-08-20T03:54:59;16.10;99.90
48686;DHT22;34485;51.536;3.816;2022-08-20T03:57:24;16.10;99.90
48686;DHT22;34485;51.536;3.816;2022-08-20T03:59:51;16.00;99.90
48686;DHT22;34485;51.536;3.816;2022-08-20T04:02:17;16.00;99.90
48686;DHT22;34485;51.536;3.816;2022-08-20T04:04:43;16.00;99.90
48686;DHT22;34485;51.536;3.816;2022-08-20T04:07:17;15.90;99.90
48686;DHT22;34485;51.536;3.816;2022-08-20T04:09:44;15.90;99.90
48686;DHT22;34485;51.536;3.816;2022-08-20T04:12:10;15.90;99.90
48686;DHT22;34485;51.536;3.816;2022-08-20T04:14:37;15.80;99.90
48686;DHT22;34485;51.536;3.816;2022-08-20T04:17:06;15.80;99.90
48686;DHT22;34485;51.536;3.816;2022-08-20T04:19:32;15.80;99.90
48686;DHT22;34485;51.536;3.816;2022-08-20T04:21:59;15.80;99.90
48686;DHT22;34485;51.536;3.816;2022-08-20T04:24:24;15.80;99.90
48686;DHT22;34485;51.536;3.816;2022-08-20T04:26:51;15.70;99.90
48686;DHT22;34485;51.536;3.816;2022-08-20T04:29:17;15.70;99.90
48686;DHT22;34485;51.536;3.816;2022-08-20T04:31:43;15.70;99.90
48686;DHT22;34485;51.536;3.816;2022-08-20T04:34:09;15.70;99.90
48686;DHT22;34485;51.536;3.816;2022-08-20T04:36:34;15.70;99.90
48686;DHT22;34485;51.536;3.816;2022-08-20T04:39:00;15.70;99.90
48686;DHT22;34485;51.536;3.816;2022-08-20T04:41:26;15.70;99.90
48686;DHT22;34485;51.536;3.816;2022-08-20T04:43:53;15.60;99.90
48686;DHT22;34485;51.536;3.816;2022-08-20T04:46:20;15.60;99.90
48686;DHT22;34485;51.536;3.816;2022-08-20T04:48:47;15.60;99.90
48686;DHT22;34485;51.536;3.816;2022-08-20T04:51:13;15.60;99.90
48686;DHT22;34485;51.536;3.816;2022-08-20T04:53:41;15.60;99.90
48686;DHT22;34485;51.536;3.816;2022-08-20T04:56:07;15.60;99.90
48686;DHT22;34485;51.536;3.816;2022-08-20T04:58:35;15.60;99.90
48686;DHT22;34485;51.536;3.816;2022-08-20T05:01:08;15.60;99.90
48686;DHT22;34485;51.536;3.816;2022-08-20T05:03:37;15.60;99.90
48686;DHT22;34485;51.536;3.816;2022-08-20T05:06:04;15.60;99.90
48686;DHT22;34485;51.536;3.816;2022-08-20T05:08:30;15.60;99.90
48686;DHT22;34485;51.536;3.816;2022-08-20T05:10:57;15.60;99.90
48686;DHT22;34485;51.536;3.816;2022-08-20T05:13:23;15.60;99.90
48686;DHT22;34485;51.536;3.816;2022-08-20T05:15:49;15.60;99.90
48686;DHT22;34485;51.536;3.816;2022-08-20T05:18:21;15.70;99.90
48686;DHT22;34485;51.536;3.816;2022-08-20T05:20:48;15.70;99.90
48686;DHT22;34485;51.536;3.816;2022-08-20T05:23:16;15.80;99.90
48686;DHT22;34485;51.536;3.816;2022-08-20T05:25:45;15.80;99.90
48686;DHT22;34485;51.536;3.816;2022-08-20T05:28:20;15.80;99.90
48686;DHT22;34485;51.536;3.816;2022-08-20T05:30:46;15.80;99.90
48686;DHT22;34485;51.536;3.816;2022-08-20T05:33:13;15.80;99.90
48686;DHT22;34485;51.536;3.816;2022-08-20T05:35:41;15.90;99.90
48686;DHT22;34485;51.536;3.816;2022-08-20T05:38:10;15.90;99.90
48686;DHT22;34485;51.536;3.816;2022-08-20T05:40:37;15.90;99.90
48686;DHT22;34485;51.536;3.816;2022-08-20T05:43:04;16.00;99.90
48686;DHT22;34485;51.536;3.816;2022-08-20T05:45:31;16.00;99.90
48686;DHT22;34485;51.536;3.816;2022-08-20T05:47:58;16.10;99.90
48686;DHT22;34485;51.536;3.816;2022-08-20T05:50:24;16.10;99.90
48686;DHT22;34485;51.536;3.816;2022-08-20T05:52:50;16.10;99.90
48686;DHT22;34485;51.536;3.816;2022-08-20T05:55:15;16.20;99.90
48686;DHT22;34485;51.536;3.816;2022-08-20T05:57:41;16.20;99.90
48686;DHT22;34485;51.536;3.816;2022-08-20T06:00:10;16.30;99.90
48686;DHT22;34485;51.536;3.816;2022-08-20T06:02:36;16.40;99.90
48686;DHT22;34485;51.536;3.816;2022-08-20T06:05:21;16.40;99.90
48686;DHT22;34485;51.536;3.816;2022-08-20T06:07:46;16.60;99.90
48686;DHT22;34485;51.536;3.816;2022-08-20T06:10:12;16.60;99.90
48686;DHT22;34485;51.536;3.816;2022-08-20T06:12:38;16.70;99.90
48686;DHT22;34485;51.536;3.816;2022-08-20T06:15:05;16.80;99.90
48686;DHT22;34485;51.536;3.816;2022-08-20T06:17:31;16.90;99.90
48686;DHT22;34485;51.536;3.816;2022-08-20T06:20:02;17.00;99.90
48686;DHT22;34485;51.536;3.816;2022-08-20T06:22:28;17.10;99.90
48686;DHT22;34485;51.536;3.816;2022-08-20T06:24:54;17.10;99.90
48686;DHT22;34485;51.536;3.816;2022-08-20T06:27:20;17.20;99.90
48686;DHT22;34485;51.536;3.816;2022-08-20T06:29:47;17.30;99.90
48686;DHT22;34485;51.536;3.816;2022-08-20T06:32:12;17.40;99.90
48686;DHT22;34485;51.536;3.816;2022-08-20T06:34:38;17.50;99.90
48686;DHT22;34485;51.536;3.816;2022-08-20T06:37:17;17.60;99.90
48686;DHT22;34485;51.536;3.816;2022-08-20T06:39:43;17.80;99.90
48686;DHT22;34485;51.536;3.816;2022-08-20T06:42:09;17.90;99.90
48686;DHT22;34485;51.536;3.816;2022-08-20T06:44:35;18.00;99.90
48686;DHT22;34485;51.536;3.816;2022-08-20T06:47:02;18.10;99.90
48686;DHT22;34485;51.536;3.816;2022-08-20T06:49:29;18.20;99.90
48686;DHT22;34485;51.536;3.816;2022-08-20T06:51:55;18.30;99.90
48686;DHT22;34485;51.536;3.816;2022-08-20T06:54:21;18.60;99.90
48686;DHT22;34485;51.536;3.816;2022-08-20T06:56:47;18.60;99.90
48686;DHT22;34485;51.536;3.816;2022-08-20T06:59:13;18.70;99.90
48686;DHT22;34485;51.536;3.816;2022-08-20T07:01:39;18.80;99.90
48686;DHT22;34485;51.536;3.816;2022-08-20T07:04:04;18.90;99.90
48686;DHT22;34485;51.536;3.816;2022-08-20T07:06:32;19.10;99.90
48686;DHT22;34485;51.536;3.816;2022-08-20T07:08:57;19.20;99.90
48686;DHT22;34485;51.536;3.816;2022-08-20T07:11:23;19.30;99.90
48686;DHT22;34485;51.536;3.816;2022-08-20T07:13:49;19.40;99.90
48686;DHT22;34485;51.536;3.816;2022-08-20T07:16:15;19.50;99.90
48686;DHT22;34485;51.536;3.816;2022-08-20T07:18:40;19.70;99.90
48686;DHT22;34485;51.536;3.816;2022-08-20T07:21:06;19.80;99.90
48686;DHT22;34485;51.536;3.816;2022-08-20T07:23:32;19.90;98.70
48686;DHT22;34485;51.536;3.816;2022-08-20T07:25:57;20.10;97.10
48686;DHT22;34485;51.536;3.816;2022-08-20T07:28:25;20.50;97.60
48686;DHT22;34485;51.536;3.816;2022-08-20T07:30:53;21.20;95.30
48686;DHT22;34485;51.536;3.816;2022-08-20T07:33:38;22.20;91.20
48686;DHT22;34485;51.536;3.816;2022-08-20T07:36:05;23.50;87.40
48686;DHT22;34485;51.536;3.816;2022-08-20T07:41:03;28.60;77.90
48686;DHT22;34485;51.536;3.816;2022-08-20T07:43:29;26.10;57.50
48686;DHT22;34485;51.536;3.816;2022-08-20T07:45:57;27.00;56.90
48686;DHT22;34485;51.536;3.816;2022-08-20T07:48:26;27.80;54.70
48686;DHT22;34485;51.536;3.816;2022-08-20T07:53:25;29.00;97.60
48686;DHT22;34485;51.536;3.816;2022-08-20T07:55:51;29.30;48.10
48686;DHT22;34485;51.536;3.816;2022-08-20T07:58:19;29.50;46.50
48686;DHT22;34485;51.536;3.816;2022-08-20T08:00:47;29.80;46.50
48686;DHT22;34485;51.536;3.816;2022-08-20T08:03:13;29.90;47.00
48686;DHT22;34485;51.536;3.816;2022-08-20T08:05:41;29.60;46.50
48686;DHT22;34485;51.536;3.816;2022-08-20T08:08:10;29.60;44.80
48686;DHT22;34485;51.536;3.816;2022-08-20T08:10:36;29.70;44.40
48686;DHT22;34485;51.536;3.816;2022-08-20T08:13:05;29.50;45.40
48686;DHT22;34485;51.536;3.816;2022-08-20T08:15:33;29.30;45.80
48686;DHT22;34485;51.536;3.816;2022-08-20T08:18:06;29.10;47.90
48686;DHT22;34485;51.536;3.816;2022-08-20T08:20:39;28.60;46.50
48686;DHT22;34485;51.536;3.816;2022-08-20T08:23:07;28.20;48.60
48686;DHT22;34485;51.536;3.816;2022-08-20T08:25:39;27.70;49.00
48686;DHT22;34485;51.536;3.816;2022-08-20T08:28:09;27.70;50.60
48686;DHT22;34485;51.536;3.816;2022-08-20T08:30:40;27.80;51.30
48686;DHT22;34485;51.536;3.816;2022-08-20T08:33:06;28.10;51.80
48686;DHT22;34485;51.536;3.816;2022-08-20T08:35:51;28.30;51.20
48686;DHT22;34485;51.536;3.816;2022-08-20T08:38:17;28.00;50.90
48686;DHT22;34485;51.536;3.816;2022-08-20T08:40:43;27.30;52.90
48686;DHT22;34485;51.536;3.816;2022-08-20T08:43:11;26.80;56.60
48686;DHT22;34485;51.536;3.816;2022-08-20T08:45:43;26.40;55.00
48686;DHT22;34485;51.536;3.816;2022-08-20T08:48:15;25.90;55.00
48686;DHT22;34485;51.536;3.816;2022-08-20T08:50:43;25.60;57.50
48686;DHT22;34485;51.536;3.816;2022-08-20T08:53:18;25.40;58.90
48686;DHT22;34485;51.536;3.816;2022-08-20T08:55:45;25.20;58.50
48686;DHT22;34485;51.536;3.816;2022-08-20T08:58:10;25.20;60.60
48686;DHT22;34485;51.536;3.816;2022-08-20T09:00:36;25.00;58.90
48686;DHT22;34485;51.536;3.816;2022-08-20T09:03:07;24.80;57.80
48686;DHT22;34485;51.536;3.816;2022-08-20T09:05:39;25.20;61.80
48686;DHT22;34485;51.536;3.816;2022-08-20T09:08:09;26.30;56.60
48686;DHT22;34485;51.536;3.816;2022-08-20T09:10:37;27.00;50.20
48686;DHT22;34485;51.536;3.816;2022-08-20T09:13:04;27.80;49.80
48686;DHT22;34485;51.536;3.816;2022-08-20T09:15:31;28.10;46.10
48686;DHT22;34485;51.536;3.816;2022-08-20T09:17:57;28.10;46.60
48686;DHT22;34485;51.536;3.816;2022-08-20T09:20:23;28.00;48.40
48686;DHT22;34485;51.536;3.816;2022-08-20T09:22:48;27.60;49.80
48686;DHT22;34485;51.536;3.816;2022-08-20T09:25:15;27.20;50.70
48686;DHT22;34485;51.536;3.816;2022-08-20T09:27:40;26.80;52.20
48686;DHT22;34485;51.536;3.816;2022-08-20T09:30:07;26.40;53.00
48686;DHT22;34485;51.536;3.816;2022-08-20T09:32:33;25.90;55.00
48686;DHT22;34485;51.536;3.816;2022-08-20T09:34:58;25.60;56.60
48686;DHT22;34485;51.536;3.816;2022-08-20T09:37:26;25.30;55.40
48686;DHT22;34485;51.536;3.816;2022-08-20T09:39:52;25.00;56.60
48686;DHT22;34485;51.536;3.816;2022-08-20T09:42:27;24.70;57.70
48686;DHT22;34485;51.536;3.816;2022-08-20T09:44:54;24.50;59.20
48686;DHT22;34485;51.536;3.816;2022-08-20T09:47:20;24.20;61.00
48686;DHT22;34485;51.536;3.816;2022-08-20T09:49:46;24.10;61.50
48686;DHT22;34485;51.536;3.816;2022-08-20T09:52:43;24.10;69.30
48686;DHT22;34485;51.536;3.816;2022-08-20T09:55:40;24.10;63.00
48686;DHT22;34485;51.536;3.816;2022-08-20T10:00:36;25.80;61.90
48686;DHT22;34485;51.536;3.816;2022-08-20T10:03:02;27.30;54.20
48686;DHT22;34485;51.536;3.816;2022-08-20T10:05:28;28.80;50.80
48686;DHT22;34485;51.536;3.816;2022-08-20T10:07:53;29.70;46.10
48686;DHT22;34485;51.536;3.816;2022-08-20T10:10:19;30.00;45.50
48686;DHT22;34485;51.536;3.816;2022-08-20T10:12:45;30.70;45.00
48686;DHT22;34485;51.536;3.816;2022-08-20T10:17:40;32.20;75.50
48686;DHT22;34485;51.536;3.816;2022-08-20T10:20:08;32.10;39.40
48686;DHT22;34485;51.536;3.816;2022-08-20T10:22:34;31.40;40.10
48686;DHT22;34485;51.536;3.816;2022-08-20T10:25:00;30.80;41.40
48686;DHT22;34485;51.536;3.816;2022-08-20T10:27:26;30.20;42.40
48686;DHT22;34485;51.536;3.816;2022-08-20T10:29:51;29.80;43.40
48686;DHT22;34485;51.536;3.816;2022-08-20T10:34:44;29.50;97.30
48686;DHT22;34485;51.536;3.816;2022-08-20T10:37:18;29.60;43.10
48686;DHT22;34485;51.536;3.816;2022-08-20T10:39:44;29.80;57.10
48686;DHT22;34485;51.536;3.816;2022-08-20T10:42:11;30.30;43.70
48686;DHT22;34485;51.536;3.816;2022-08-20T10:44:37;30.90;42.20
48686;DHT22;34485;51.536;3.816;2022-08-20T10:49:42;32.50;39.20
48686;DHT22;34485;51.536;3.816;2022-08-20T10:52:08;32.60;37.90
48686;DHT22;34485;51.536;3.816;2022-08-20T10:54:34;32.50;38.90
48686;DHT22;34485;51.536;3.816;2022-08-20T10:57:03;32.50;37.80
48686;DHT22;34485;51.536;3.816;2022-08-20T10:59:29;32.50;37.80
48686;DHT22;34485;51.536;3.816;2022-08-20T11:01:55;32.70;37.30
48686;DHT22;34485;51.536;3.816;2022-08-20T11:04:20;32.10;37.20
48686;DHT22;34485;51.536;3.816;2022-08-20T11:06:46;31.30;74.90
48686;DHT22;34485;51.536;3.816;2022-08-20T11:09:12;30.70;40.50
48686;DHT22;34485;51.536;3.816;2022-08-20T11:11:37;30.90;41.00
48686;DHT22;34485;51.536;3.816;2022-08-20T11:14:03;31.40;40.10
48686;DHT22;34485;51.536;3.816;2022-08-20T11:16:29;31.30;38.50
48686;DHT22;34485;51.536;3.816;2022-08-20T11:18:54;31.00;39.40
48686;DHT22;34485;51.536;3.816;2022-08-20T11:21:20;30.70;39.50
48686;DHT22;34485;51.536;3.816;2022-08-20T11:23:46;30.80;39.70
48686;DHT22;34485;51.536;3.816;2022-08-20T11:26:21;30.90;39.30
48686;DHT22;34485;51.536;3.816;2022-08-20T11:28:47;30.80;39.30
48686;DHT22;34485;51.536;3.816;2022-08-20T11:33:38;29.50;92.80
48686;DHT22;34485;51.536;3.816;2022-08-20T11:36:04;29.30;42.40
48686;DHT22;34485;51.536;3.816;2022-08-20T11:38:30;28.90;43.60
48686;DHT22;34485;51.536;3.816;2022-08-20T11:40:56;28.60;44.20
48686;DHT22;34485;51.536;3.816;2022-08-20T11:43:21;28.50;45.50
48686;DHT22;34485;51.536;3.816;2022-08-20T11:45:50;28.50;45.00
48686;DHT22;34485;51.536;3.816;2022-08-20T11:48:17;28.80;44.00
48686;DHT22;34485;51.536;3.816;2022-08-20T11:50:43;28.70;43.90
48686;DHT22;34485;51.536;3.816;2022-08-20T11:53:09;28.60;44.50
48686;DHT22;34485;51.536;3.816;2022-08-20T11:55:35;28.50;43.50
48686;DHT22;34485;51.536;3.816;2022-08-20T11:58:01;28.50;44.70
48686;DHT22;34485;51.536;3.816;2022-08-20T12:00:29;28.50;48.10
48686;DHT22;34485;51.536;3.816;2022-08-20T12:02:54;28.60;55.90
48686;DHT22;34485;51.536;3.816;2022-08-20T12:05:20;28.70;54.80
48686;DHT22;34485;51.536;3.816;2022-08-20T12:07:46;28.40;43.20
48686;DHT22;34485;51.536;3.816;2022-08-20T12:12:38;28.00;97.40
48686;DHT22;34485;51.536;3.816;2022-08-20T12:15:05;27.60;44.90
48686;DHT22;34485;51.536;3.816;2022-08-20T12:17:31;27.50;44.70
48686;DHT22;34485;51.536;3.816;2022-08-20T12:20:01;27.30;44.60
48686;DHT22;34485;51.536;3.816;2022-08-20T12:22:26;27.20;45.70
48686;DHT22;34485;51.536;3.816;2022-08-20T12:24:53;27.00;45.50
48686;DHT22;34485;51.536;3.816;2022-08-20T12:27:24;26.80;46.90
48686;DHT22;34485;51.536;3.816;2022-08-20T12:29:52;26.80;48.00
48686;DHT22;34485;51.536;3.816;2022-08-20T12:32:20;26.70;47.70
48686;DHT22;34485;51.536;3.816;2022-08-20T12:34:46;26.40;47.90
48686;DHT22;34485;51.536;3.816;2022-08-20T12:37:14;26.20;48.80
48686;DHT22;34485;51.536;3.816;2022-08-20T12:39:43;25.90;49.20
48686;DHT22;34485;51.536;3.816;2022-08-20T12:42:10;25.70;50.70
48686;DHT22;34485;51.536;3.816;2022-08-20T12:44:37;25.60;51.10
48686;DHT22;34485;51.536;3.816;2022-08-20T12:47:16;25.60;50.60
48686;DHT22;34485;51.536;3.816;2022-08-20T12:49:49;25.70;50.30
48686;DHT22;34485;51.536;3.816;2022-08-20T12:52:17;25.70;49.30
48686;DHT22;34485;51.536;3.816;2022-08-20T12:54:43;25.80;49.20
48686;DHT22;34485;51.536;3.816;2022-08-20T12:57:23;25.60;49.60
48686;DHT22;34485;51.536;3.816;2022-08-20T12:59:49;25.70;48.70
48686;DHT22;34485;51.536;3.816;2022-08-20T13:02:14;25.70;48.00
48686;DHT22;34485;51.536;3.816;2022-08-20T13:04:42;25.60;47.90
48686;DHT22;34485;51.536;3.816;2022-08-20T13:07:10;25.60;48.60
48686;DHT22;34485;51.536;3.816;2022-08-20T13:09:36;25.60;48.50
48686;DHT22;34485;51.536;3.816;2022-08-20T13:12:02;25.50;48.60
48686;DHT22;34485;51.536;3.816;2022-08-20T13:14:27;25.50;49.60
48686;DHT22;34485;51.536;3.816;2022-08-20T13:16:55;25.50;50.00
48686;DHT22;34485;51.536;3.816;2022-08-20T13:19:21;25.60;49.60
48686;DHT22;34485;51.536;3.816;2022-08-20T13:21:46;25.70;50.10
48686;DHT22;34485;51.536;3.816;2022-08-20T13:24:12;25.70;50.30
48686;DHT22;34485;51.536;3.816;2022-08-20T13:26:38;25.70;50.00
48686;DHT22;34485;51.536;3.816;2022-08-20T13:29:03;25.70;49.40
48686;DHT22;34485;51.536;3.816;2022-08-20T13:31:29;25.70;50.20
48686;DHT22;34485;51.536;3.816;2022-08-20T13:33:54;25.70;48.20
48686;DHT22;34485;51.536;3.816;2022-08-20T13:36:20;25.60;49.60
48686;DHT22;34485;51.536;3.816;2022-08-20T13:38:46;25.60;50.10
48686;DHT22;34485;51.536;3.816;2022-08-20T13:41:11;25.70;50.30
48686;DHT22;34485;51.536;3.816;2022-08-20T13:43:37;25.60;49.30
48686;DHT22;34485;51.536;3.816;2022-08-20T13:46:03;25.60;50.10
48686;DHT22;34485;51.536;3.816;2022-08-20T13:48:31;25.60;50.30
48686;DHT22;34485;51.536;3.816;2022-08-20T13:50:57;25.50;50.00
48686;DHT22;34485;51.536;3.816;2022-08-20T13:53:23;25.50;50.10
48686;DHT22;34485;51.536;3.816;2022-08-20T13:55:49;25.50;50.10
48686;DHT22;34485;51.536;3.816;2022-08-20T13:58:14;25.40;49.90
48686;DHT22;34485;51.536;3.816;2022-08-20T14:00:42;25.40;50.20
48686;DHT22;34485;51.536;3.816;2022-08-20T14:03:08;25.30;50.20
48686;DHT22;34485;51.536;3.816;2022-08-20T14:05:34;25.20;50.00
48686;DHT22;34485;51.536;3.816;2022-08-20T14:08:18;25.20;50.80
48686;DHT22;34485;51.536;3.816;2022-08-20T14:10:45;25.10;50.70
48686;DHT22;34485;51.536;3.816;2022-08-20T14:13:15;25.00;51.20
48686;DHT22;34485;51.536;3.816;2022-08-20T14:15:40;24.80;51.30
48686;DHT22;34485;51.536;3.816;2022-08-20T14:18:06;24.80;51.60
48686;DHT22;34485;51.536;3.816;2022-08-20T14:20:33;24.80;51.40
48686;DHT22;34485;51.536;3.816;2022-08-20T14:23:00;24.80;51.80
48686;DHT22;34485;51.536;3.816;2022-08-20T14:25:26;24.80;52.90
48686;DHT22;34485;51.536;3.816;2022-08-20T14:27:53;24.80;51.80
48686;DHT22;34485;51.536;3.816;2022-08-20T14:30:21;24.70;49.80
48686;DHT22;34485;51.536;3.816;2022-08-20T14:32:47;24.60;49.50
48686;DHT22;34485;51.536;3.816;2022-08-20T14:35:14;24.50;50.90
48686;DHT22;34485;51.536;3.816;2022-08-20T14:37:46;24.50;51.80
48686;DHT22;34485;51.536;3.816;2022-08-20T14:40:15;24.50;51.80
48686;DHT22;34485;51.536;3.816;2022-08-20T14:42:41;24.40;51.00
48686;DHT22;34485;51.536;3.816;2022-08-20T14:45:09;24.40;51.30
48686;DHT22;34485;51.536;3.816;2022-08-20T14:47:40;24.40;52.10
48686;DHT22;34485;51.536;3.816;2022-08-20T14:50:14;24.40;50.70
48686;DHT22;34485;51.536;3.816;2022-08-20T14:52:39;24.40;48.90
48686;DHT22;34485;51.536;3.816;2022-08-20T14:55:08;24.30;50.20
48686;DHT22;34485;51.536;3.816;2022-08-20T14:57:34;24.30;49.80
48686;DHT22;34485;51.536;3.816;2022-08-20T15:00:00;24.20;50.80
48686;DHT22;34485;51.536;3.816;2022-08-20T15:02:25;24.20;51.00
48686;DHT22;34485;51.536;3.816;2022-08-20T15:04:51;24.20;50.60
48686;DHT22;34485;51.536;3.816;2022-08-20T15:07:30;24.20;51.10
48686;DHT22;34485;51.536;3.816;2022-08-20T15:09:57;24.20;51.50
48686;DHT22;34485;51.536;3.816;2022-08-20T15:12:23;24.20;50.90
48686;DHT22;34485;51.536;3.816;2022-08-20T15:14:49;24.20;52.40
48686;DHT22;34485;51.536;3.816;2022-08-20T15:17:19;24.20;51.40
48686;DHT22;34485;51.536;3.816;2022-08-20T15:19:45;24.20;51.10
48686;DHT22;34485;51.536;3.816;2022-08-20T15:22:10;24.20;51.60
48686;DHT22;34485;51.536;3.816;2022-08-20T15:24:36;24.20;50.50
48686;DHT22;34485;51.536;3.816;2022-08-20T15:27:19;24.10;51.50
48686;DHT22;34485;51.536;3.816;2022-08-20T15:29:45;24.00;52.10
48686;DHT22;34485;51.536;3.816;2022-08-20T15:32:11;24.00;52.00
48686;DHT22;34485;51.536;3.816;2022-08-20T15:34:37;24.00;52.50
48686;DHT22;34485;51.536;3.816;2022-08-20T15:37:08;23.90;52.70
48686;DHT22;34485;51.536;3.816;2022-08-20T15:39:35;23.90;51.30
48686;DHT22;34485;51.536;3.816;2022-08-20T15:42:01;23.90;51.90
48686;DHT22;34485;51.536;3.816;2022-08-20T15:44:27;23.90;52.90
48686;DHT22;34485;51.536;3.816;2022-08-20T15:46:53;23.80;51.30
48686;DHT22;34485;51.536;3.816;2022-08-20T15:49:18;23.80;51.40
48686;DHT22;34485;51.536;3.816;2022-08-20T15:51:46;23.80;51.30
48686;DHT22;34485;51.536;3.816;2022-08-20T15:54:22;23.70;51.20
48686;DHT22;34485;51.536;3.816;2022-08-20T16:06:57;23.50;51.20
48686;DHT22;34485;51.536;3.816;2022-08-20T16:12:13;23.40;50.50
48686;DHT22;34485;51.536;3.816;2022-08-20T16:14:42;23.40;51.40
48686;DHT22;34485;51.536;3.816;2022-08-20T16:17:15;23.40;49.80
48686;DHT22;34485;51.536;3.816;2022-08-20T16:20:04;23.30;50.40